SAZT/TDL METAR and TAF weather

Enter ICAO airport designator
Station Type Date Time Source
SAZT METAR 2019/09/19 15:35 UTC NOAA

SAZT 191535Z 24019G35KT CAVOK 12/M07 Q1009


Station Type Date Time Source
SAZT Decoded METAR 2019/09/19 15:35 UTC NOAA

Tandil Aerodrome, Argentina (SAZT) 37-14S 059-15W 175M
Sep 19, 2019 - 11:35 AM EDT / 2019.09.19 1535 UTC
Wind: from the WSW (240 degrees) at 22 MPH (19 KT) gusting to 40 MPH (35 KT):0
Visibility: greater than 7 mile(s):0
Temperature: 53 F (12 C)
Dew Point: 19 F (-7 C)
Relative Humidity: 25%
Pressure (altimeter): 29.80 in. Hg (1009 hPa)
ob: SAZT 191535Z 24019G35KT CAVOK 12/M07 Q1009
cycle: 15

Station Type Date Time Source
SAZT TAF UTC NOAA

Error!

Example: see airport list